Time;durP1;ratioP1;P1;durP2;ratioP2;P2;SDS_P1;SDS_P2;PMS_P1;PMS_P2;Temp;Humidity;BMP_temperature;BMP_pressure;BME280_temperature;BME280_humidity;BME280_pressure;Samples;Min_cycle;Max_cycle;Signal;HPM_P1;HPM_P2
2023/05/15 00:00:13;;;;;;;46.45;41.40;;;13.20;99.90;;;;;;5017017;28;20107;-74
2023/05/15 00:02:39;;;;;;;48.30;42.72;;;13.20;99.90;;;;;;5015380;28;20049;-78
2023/05/15 00:05:08;;;;;;;50.15;43.03;;;13.10;99.90;;;;;;5014865;28;20116;-75
2023/05/15 00:07:34;;;;;;;49.40;44.05;;;13.10;99.90;;;;;;5016247;28;20100;-74
2023/05/15 00:10:00;;;;;;;52.30;44.33;;;13.20;99.90;;;;;;5016495;28;20140;-72
2023/05/15 00:12:26;;;;;;;51.88;43.20;;;13.20;99.90;;;;;;5015739;28;20399;-73
2023/05/15 00:14:51;;;;;;;50.58;45.13;;;13.20;99.90;;;;;;5018716;28;20140;-75
2023/05/15 00:17:17;;;;;;;51.60;43.97;;;13.20;99.90;;;;;;5014901;28;20049;-75
2023/05/15 00:19:43;;;;;;;56.30;46.28;;;13.20;99.90;;;;;;5017432;28;20136;-73
2023/05/15 00:22:09;;;;;;;56.13;45.80;;;13.10;99.90;;;;;;5015845;28;20084;-74
2023/05/15 00:24:34;;;;;;;62.85;47.67;;;13.10;99.90;;;;;;5015126;28;20420;-73
2023/05/15 00:27:00;;;;;;;90.80;48.60;;;13.10;99.90;;;;;;5016034;28;21794;-73
2023/05/15 00:29:26;;;;;;;66.38;48.33;;;13.00;99.90;;;;;;5018857;28;20052;-74
2023/05/15 00:31:52;;;;;;;64.20;48.63;;;12.90;99.90;;;;;;5014692;28;20072;-73
2023/05/15 00:34:18;;;;;;;66.03;48.47;;;13.00;99.90;;;;;;5016279;28;20049;-74
2023/05/15 00:36:44;;;;;;;69.07;49.35;;;13.00;99.90;;;;;;5016434;28;20103;-74
2023/05/15 00:39:10;;;;;;;64.68;49.78;;;13.00;99.90;;;;;;5020735;28;20082;-75
2023/05/15 00:41:37;;;;;;;69.32;50.65;;;13.00;99.90;;;;;;5024713;28;20049;-75
2023/05/15 00:44:05;;;;;;;97.18;51.30;;;13.00;99.90;;;;;;5017401;28;20104;-73
2023/05/15 00:46:32;;;;;;;67.82;51.25;;;13.00;99.90;;;;;;5018990;28;20076;-73
2023/05/15 00:49:03;;;;;;;81.35;50.15;;;13.00;99.90;;;;;;5018493;28;20049;-75
2023/05/15 00:51:29;;;;;;;71.25;49.60;;;13.00;99.90;;;;;;5028736;28;20053;-73
2023/05/15 00:53:55;;;;;;;61.40;48.67;;;13.00;99.90;;;;;;5015920;28;20049;-74
2023/05/15 00:56:21;;;;;;;61.47;49.47;;;13.00;99.90;;;;;;5016318;28;20049;-73
2023/05/15 00:58:48;;;;;;;59.28;49.50;;;13.00;99.90;;;;;;5015112;28;20060;-72
2023/05/15 01:01:15;;;;;;;59.20;49.33;;;13.00;99.90;;;;;;5013860;28;20057;-73
2023/05/15 01:03:44;;;;;;;63.47;51.15;;;13.00;99.90;;;;;;5018667;28;21172;-74
2023/05/15 01:06:11;;;;;;;73.25;51.20;;;13.00;99.90;;;;;;5015170;28;20076;-75
2023/05/15 01:08:45;;;;;;;62.17;48.65;;;13.00;99.90;;;;;;5015746;28;20060;-75
2023/05/15 01:11:15;;;;;;;72.72;50.63;;;13.00;99.90;;;;;;5017004;28;20046;-74
2023/05/15 01:13:42;;;;;;;81.13;48.85;;;12.90;99.90;;;;;;5015058;28;20049;-74
2023/05/15 01:16:09;;;;;;;66.90;49.78;;;12.90;99.90;;;;;;5016911;28;20054;-74
2023/05/15 01:18:35;;;;;;;67.25;50.63;;;12.90;99.90;;;;;;5016715;28;20037;-74
2023/05/15 01:21:26;;;;;;;71.25;51.85;;;12.90;99.90;;;;;;5023565;28;20041;-76
2023/05/15 01:24:22;;;;;;;63.78;50.10;;;12.80;99.90;;;;;;5013936;28;20059;-75
2023/05/15 01:27:06;;;;;;;;;;;12.80;99.90;;;;;;5015176;28;20050;-75
2023/05/15 01:29:57;;;;;;;70.57;51.28;;;12.70;99.90;;;;;;5014260;28;19925;-73
2023/05/15 01:32:35;;;;;;;68.47;51.58;;;12.70;99.90;;;;;;5015549;28;20045;-73
2023/05/15 01:35:13;;;;;;;;;;;12.70;99.90;;;;;;5015160;28;20065;-75
2023/05/15 01:37:48;;;;;;;65.07;50.15;;;12.60;99.90;;;;;;5018233;28;20841;-74
2023/05/15 01:40:16;;;;;;;64.53;50.45;;;12.60;99.90;;;;;;5018948;28;20053;-75
2023/05/15 01:42:48;;;;;;;67.28;51.53;;;12.60;99.90;;;;;;5015483;28;20049;-71
2023/05/15 01:45:14;;;;;;;62.13;49.50;;;12.70;99.90;;;;;;5015047;28;20120;-74
2023/05/15 01:47:43;;;;;;;67.22;51.83;;;12.70;99.90;;;;;;5015098;28;20465;-75
2023/05/15 01:50:14;;;;;;;70.65;51.33;;;12.70;99.90;;;;;;5014678;28;20058;-74
2023/05/15 01:52:43;;;;;;;68.90;51.75;;;12.70;99.90;;;;;;5015500;28;20061;-74
2023/05/15 01:55:10;;;;;;;70.63;52.38;;;12.70;99.90;;;;;;5015343;28;20041;-74
2023/05/15 01:57:41;;;;;;;74.75;54.63;;;12.70;99.90;;;;;;5017532;28;20753;-76
2023/05/15 02:00:07;;;;;;;;;;;12.70;99.90;;;;;;5016052;28;20465;-72
2023/05/15 02:02:33;;;;;;;75.87;54.00;;;12.70;99.90;;;;;;5014243;28;19921;-73
2023/05/15 02:05:00;;;;;;;68.80;53.30;;;12.60;99.90;;;;;;5015809;28;20331;-74
2023/05/15 02:07:26;;;;;;;83.10;52.78;;;12.60;99.90;;;;;;5015753;28;20042;-75
2023/05/15 02:09:53;;;;;;;71.88;52.75;;;12.60;99.90;;;;;;5014886;28;20472;-73
2023/05/15 02:12:22;;;;;;;71.30;54.53;;;12.60;99.90;;;;;;5017152;28;20093;-75
2023/05/15 02:14:49;;;;;;;73.15;53.30;;;12.60;99.90;;;;;;5015898;28;20560;-73
2023/05/15 02:17:15;;;;;;;87.70;55.95;;;12.50;99.90;;;;;;5017962;28;20486;-74
2023/05/15 02:19:41;;;;;;;73.45;54.83;;;12.50;99.90;;;;;;5017896;28;20563;-73
2023/05/15 02:22:07;;;;;;;75.68;56.97;;;12.40;99.90;;;;;;5018634;28;20045;-73
2023/05/15 02:24:32;;;;;;;72.78;54.45;;;12.40;99.90;;;;;;5020365;28;21066;-75
2023/05/15 02:27:19;;;;;;;89.72;54.25;;;12.40;99.90;;;;;;5017814;28;20050;-74
2023/05/15 02:30:10;;;;;;;69.97;53.30;;;12.40;99.90;;;;;;5031292;28;20049;-76
2023/05/15 02:32:49;;;;;;;70.03;54.33;;;12.30;99.90;;;;;;5018766;28;20496;-73
2023/05/15 02:35:38;;;;;;;74.13;54.03;;;12.30;99.90;;;;;;5027781;28;20056;-73
2023/05/15 02:38:10;;;;;;;77.85;54.63;;;12.40;99.90;;;;;;5023863;28;20955;-73
2023/05/15 02:40:36;;;;;;;67.95;49.92;;;12.30;99.90;;;;;;5027546;28;20041;-74
2023/05/15 02:43:03;;;;;;;63.65;50.97;;;12.30;99.90;;;;;;5019907;28;20033;-72
2023/05/15 02:45:31;;;;;;;92.45;51.45;;;12.30;99.90;;;;;;5017630;28;20049;-74
2023/05/15 02:47:57;;;;;;;80.07;49.60;;;12.20;99.90;;;;;;5019214;28;20046;-76
2023/05/15 02:50:23;;;;;;;57.53;50.53;;;12.20;99.90;;;;;;5018671;28;20092;-74
2023/05/15 02:52:49;;;;;;;83.47;48.38;;;12.20;99.90;;;;;;5018000;28;20459;-75
2023/05/15 02:55:14;;;;;;;68.30;47.90;;;12.20;99.90;;;;;;5018725;28;20883;-74
2023/05/15 02:57:40;;;;;;;73.05;47.80;;;12.20;99.90;;;;;;5018367;28;20079;-73
2023/05/15 03:00:10;;;;;;;59.58;47.30;;;12.10;99.90;;;;;;5019782;28;20053;-73
2023/05/15 03:02:36;;;;;;;60.70;50.05;;;12.10;99.90;;;;;;5018397;28;20061;-73
2023/05/15 03:05:02;;;;;;;73.38;50.75;;;12.10;99.90;;;;;;5020707;28;20061;-73
2023/05/15 03:07:28;;;;;;;70.80;47.45;;;12.00;99.90;;;;;;5025033;28;20033;-74
2023/05/15 03:09:53;;;;;;;53.47;45.05;;;12.00;99.90;;;;;;5021784;28;20095;-74
2023/05/15 03:12:19;;;;;;;173.98;49.65;;;12.10;99.90;;;;;;5016049;28;20378;-74
2023/05/15 03:14:44;;;;;;;109.78;46.85;;;12.00;99.90;;;;;;5019479;28;20053;-74
2023/05/15 03:17:10;;;;;;;59.22;45.83;;;12.00;99.90;;;;;;5018495;28;20037;-75
2023/05/15 03:19:36;;;;;;;69.90;48.08;;;11.90;99.90;;;;;;5015284;28;20037;-75
2023/05/15 03:22:01;;;;;;;58.03;45.35;;;11.90;99.90;;;;;;5018484;28;20060;-75
2023/05/15 03:24:27;;;;;;;70.32;46.88;;;11.90;99.90;;;;;;5015632;28;20056;-72
2023/05/15 03:26:52;;;;;;;58.33;47.70;;;11.90;99.90;;;;;;5014776;28;20056;-73
2023/05/15 03:29:18;;;;;;;58.92;48.33;;;11.90;99.90;;;;;;5017040;28;20045;-75
2023/05/15 03:31:44;;;;;;;62.58;46.65;;;11.90;99.90;;;;;;5019814;28;20447;-74
2023/05/15 03:34:10;;;;;;;52.13;45.72;;;12.00;99.90;;;;;;5015536;28;20052;-74
2023/05/15 03:36:35;;;;;;;62.90;45.88;;;12.00;99.90;;;;;;5030862;28;20456;-75
2023/05/15 03:39:01;;;;;;;55.92;46.95;;;12.00;99.90;;;;;;5017786;28;20069;-73
2023/05/15 03:41:27;;;;;;;73.07;45.45;;;12.00;99.90;;;;;;5016534;28;20037;-74
2023/05/15 03:43:52;;;;;;;71.32;45.65;;;12.00;99.90;;;;;;5016304;28;20091;-75
2023/05/15 03:46:18;;;;;;;118.07;46.80;;;12.00;99.90;;;;;;5018191;28;20053;-74
2023/05/15 03:48:44;;;;;;;79.38;46.47;;;12.00;99.90;;;;;;5019300;28;20341;-72
2023/05/15 03:51:10;;;;;;;94.18;44.78;;;11.90;99.90;;;;;;5027815;28;20126;-74
2023/05/15 03:53:35;;;;;;;83.68;46.13;;;11.90;99.90;;;;;;5017219;28;20041;-75
2023/05/15 03:56:02;;;;;;;120.93;48.78;;;11.80;99.90;;;;;;5028078;28;20043;-74
2023/05/15 03:58:30;;;;;;;58.53;47.10;;;11.80;99.90;;;;;;5024443;28;20049;-74
2023/05/15 04:00:56;;;;;;;144.90;47.85;;;11.80;99.90;;;;;;5017307;28;20084;-75
2023/05/15 04:03:22;;;;;;;119.90;48.08;;;11.80;99.90;;;;;;5015974;28;20033;-74
2023/05/15 04:05:48;;;;;;;59.33;44.88;;;11.80;99.90;;;;;;5017370;28;20041;-73
2023/05/15 04:08:15;;;;;;;60.30;44.57;;;11.80;99.90;;;;;;5022923;28;20045;-73
2023/05/15 04:10:40;;;;;;;108.05;47.17;;;11.70;99.90;;;;;;5022937;28;20288;-74
2023/05/15 04:13:06;;;;;;;162.10;48.60;;;11.70;99.90;;;;;;5018404;28;20052;-73
2023/05/15 04:15:32;;;;;;;69.32;47.80;;;11.70;99.90;;;;;;5015856;28;20222;-73
2023/05/15 04:17:57;;;;;;;85.50;46.78;;;11.70;99.90;;;;;;5014971;28;20199;-75
2023/05/15 04:20:24;;;;;;;58.20;48.65;;;11.70;99.90;;;;;;5014100;28;20064;-74
2023/05/15 04:22:51;;;;;;;58.40;45.27;;;11.70;99.90;;;;;;5015099;28;20048;-75
2023/05/15 04:25:17;;;;;;;51.58;45.97;;;11.70;99.90;;;;;;5015474;28;20049;-76
2023/05/15 04:27:43;;;;;;;78.70;48.60;;;11.80;99.90;;;;;;5015284;28;20488;-74
2023/05/15 04:30:10;;;;;;;88.20;50.20;;;11.80;99.90;;;;;;5017299;28;20057;-74
2023/05/15 04:32:37;;;;;;;94.85;49.70;;;11.80;99.90;;;;;;5020128;28;20042;-74
2023/05/15 04:35:11;;;;;;;88.13;50.07;;;11.80;99.90;;;;;;5016306;28;20067;-74
2023/05/15 04:37:41;;;;;;;72.75;48.67;;;11.70;99.90;;;;;;5013740;28;20132;-74
2023/05/15 04:40:08;;;;;;;130.52;50.05;;;11.70;99.90;;;;;;5016293;28;20076;-74
2023/05/15 04:42:35;;;;;;;58.50;44.45;;;11.70;99.90;;;;;;5015874;28;20045;-74
2023/05/15 04:45:01;;;;;;;68.03;46.35;;;11.60;99.90;;;;;;5015773;28;20045;-74
2023/05/15 04:47:27;;;;;;;66.25;46.55;;;11.60;99.90;;;;;;5017107;28;20131;-74
2023/05/15 04:49:52;;;;;;;82.95;48.95;;;11.60;99.90;;;;;;5017482;28;20148;-74
2023/05/15 04:52:18;;;;;;;85.03;49.25;;;11.60;99.90;;;;;;5015080;28;20191;-74
2023/05/15 04:54:48;;;;;;;95.18;47.80;;;11.60;99.90;;;;;;5018318;28;20076;-74
2023/05/15 04:57:14;;;;;;;57.40;47.60;;;11.50;99.90;;;;;;5016556;28;20073;-72
2023/05/15 04:59:39;;;;;;;65.18;47.13;;;11.50;99.90;;;;;;5015337;28;20157;-75
2023/05/15 05:02:08;;;;;;;58.10;47.67;;;11.50;99.90;;;;;;5016170;28;20088;-73
2023/05/15 05:04:33;;;;;;;55.38;45.50;;;11.50;99.90;;;;;;5018122;28;20392;-75
2023/05/15 05:07:05;;;;;;;56.92;45.72;;;11.40;99.90;;;;;;5014806;28;20041;-73
2023/05/15 05:09:31;;;;;;;51.88;45.53;;;11.50;99.90;;;;;;5030012;28;20045;-73
2023/05/15 05:12:00;;;;;;;65.22;46.63;;;11.50;99.90;;;;;;5013913;28;20049;-75
2023/05/15 05:14:26;;;;;;;55.72;42.45;;;11.50;99.90;;;;;;5016159;28;20515;-72
2023/05/15 05:16:52;;;;;;;58.65;44.90;;;11.50;99.90;;;;;;5014608;28;20053;-75
2023/05/15 05:19:17;;;;;;;84.05;47.38;;;11.60;99.90;;;;;;5021546;28;20041;-74
2023/05/15 05:21:43;;;;;;;52.83;44.70;;;11.60;99.90;;;;;;5021175;28;20084;-73
2023/05/15 05:24:09;;;;;;;61.45;46.13;;;11.60;99.90;;;;;;5015801;28;20610;-74
2023/05/15 05:26:34;;;;;;;57.25;45.47;;;11.50;99.90;;;;;;5014204;28;20034;-74
2023/05/15 05:29:00;;;;;;;80.72;46.53;;;11.50;99.90;;;;;;5015876;28;20050;-74
2023/05/15 05:31:29;;;;;;;63.92;45.38;;;11.50;99.90;;;;;;5018409;28;20046;-74
2023/05/15 05:33:55;;;;;;;64.55;46.15;;;11.50;99.90;;;;;;5014141;28;20115;-74
2023/05/15 05:36:20;;;;;;;60.13;45.70;;;11.50;99.90;;;;;;5015727;28;20132;-73
2023/05/15 05:38:46;;;;;;;64.15;46.20;;;11.40;99.90;;;;;;5015839;28;20053;-76
2023/05/15 05:41:12;;;;;;;56.30;46.50;;;11.50;99.90;;;;;;5015062;28;20045;-73
2023/05/15 05:43:37;;;;;;;49.88;42.13;;;11.50;99.90;;;;;;5016166;28;20045;-73
2023/05/15 05:46:03;;;;;;;49.22;43.90;;;11.50;99.90;;;;;;5015289;28;20545;-74
2023/05/15 05:48:29;;;;;;;50.85;43.75;;;11.50;99.90;;;;;;5017524;28;20053;-73
2023/05/15 05:50:55;;;;;;;54.33;45.55;;;11.40;99.90;;;;;;5018043;28;20072;-74
2023/05/15 05:53:20;;;;;;;55.00;46.35;;;11.50;99.90;;;;;;5018526;28;20642;-74
2023/05/15 05:55:47;;;;;;;56.60;46.30;;;11.50;99.90;;;;;;5018402;28;20049;-75
2023/05/15 05:58:18;;;;;;;65.90;48.63;;;11.50;99.90;;;;;;5019063;28;20128;-74
2023/05/15 06:00:44;;;;;;;57.45;45.63;;;11.40;99.90;;;;;;5018596;28;20057;-74
2023/05/15 06:03:10;;;;;;;57.65;47.75;;;11.40;99.90;;;;;;5018481;28;20056;-74
2023/05/15 06:05:36;;;;;;;55.20;44.70;;;11.40;99.90;;;;;;5029247;28;20508;-75
2023/05/15 06:08:03;;;;;;;60.00;44.70;;;11.40;99.90;;;;;;5023034;28;20068;-73
2023/05/15 06:10:29;;;;;;;59.80;45.85;;;11.40;99.90;;;;;;5016239;28;20049;-72
2023/05/15 06:12:55;;;;;;;52.95;40.75;;;11.40;99.90;;;;;;5022954;28;20072;-72
2023/05/15 06:15:21;;;;;;;46.90;41.67;;;11.40;99.90;;;;;;5026625;28;20150;-72
2023/05/15 06:17:46;;;;;;;45.35;40.35;;;11.40;99.90;;;;;;5005593;28;20039;-72
2023/05/15 06:20:13;;;;;;;46.67;38.35;;;11.30;99.90;;;;;;5019604;28;20080;-71
2023/05/15 06:22:39;;;;;;;42.47;37.97;;;11.30;99.90;;;;;;5018618;28;20520;-72
2023/05/15 06:25:05;;;;;;;46.63;39.05;;;11.30;99.90;;;;;;5018798;28;20049;-72
2023/05/15 06:27:31;;;;;;;45.92;40.15;;;11.30;99.90;;;;;;5019866;28;20083;-72
2023/05/15 06:29:58;;;;;;;44.80;40.08;;;11.30;99.90;;;;;;5019372;28;20045;-74
2023/05/15 06:32:24;;;;;;;50.05;42.33;;;11.30;99.90;;;;;;5018921;28;20426;-71
2023/05/15 06:34:50;;;;;;;51.20;43.95;;;11.40;99.90;;;;;;5019394;28;20049;-72
2023/05/15 06:37:15;;;;;;;57.90;46.45;;;11.40;99.90;;;;;;5018679;28;20041;-74
2023/05/15 06:39:41;;;;;;;56.13;45.22;;;11.30;99.90;;;;;;5018440;28;20054;-72
2023/05/15 06:42:07;;;;;;;53.13;45.15;;;11.40;99.90;;;;;;5016451;28;20041;-72
2023/05/15 06:44:33;;;;;;;52.83;43.80;;;11.40;99.90;;;;;;5020848;28;20119;-72
2023/05/15 06:46:58;;;;;;;52.55;43.65;;;11.40;99.90;;;;;;5023555;28;20497;-72
2023/05/15 06:49:24;;;;;;;53.58;45.25;;;11.40;99.90;;;;;;5017480;28;20045;-72
2023/05/15 06:51:50;;;;;;;53.47;42.20;;;11.40;99.90;;;;;;5016618;28;20532;-72
2023/05/15 06:54:16;;;;;;;55.80;41.28;;;11.40;99.90;;;;;;5017314;28;20401;-71
2023/05/15 06:56:42;;;;;;;56.58;44.30;;;11.30;99.90;;;;;;5032411;28;20052;-74
2023/05/15 06:59:08;;;;;;;54.50;41.97;;;11.30;99.90;;;;;;5016122;28;20058;-72
2023/05/15 07:01:34;;;;;;;51.78;40.85;;;11.30;99.90;;;;;;5021233;28;20060;-72
2023/05/15 07:04:00;;;;;;;52.80;43.78;;;11.20;99.90;;;;;;5017195;28;20041;-72
2023/05/15 07:06:25;;;;;;;56.47;44.47;;;11.30;99.90;;;;;;5016198;28;20472;-72
2023/05/15 07:08:51;;;;;;;54.30;41.97;;;11.30;99.90;;;;;;5030194;28;20085;-72
2023/05/15 07:11:17;;;;;;;56.55;43.35;;;11.30;99.90;;;;;;5016877;28;20037;-71
2023/05/15 07:13:43;;;;;;;54.60;43.90;;;11.30;99.90;;;;;;5016534;28;20046;-72
2023/05/15 07:16:08;;;;;;;51.03;43.40;;;11.40;99.90;;;;;;5017243;28;20762;-73
2023/05/15 07:18:34;;;;;;;49.78;41.67;;;11.50;99.90;;;;;;5029320;28;20051;-72
2023/05/15 07:21:00;;;;;;;54.58;45.40;;;11.60;99.90;;;;;;5018071;28;20091;-72
2023/05/15 07:23:26;;;;;;;49.78;42.40;;;11.70;99.90;;;;;;5018069;28;20025;-72
2023/05/15 07:25:53;;;;;;;46.13;41.13;;;11.70;99.90;;;;;;5016354;28;20042;-73
2023/05/15 07:28:19;;;;;;;45.55;39.83;;;11.80;99.90;;;;;;5017295;28;20656;-72
2023/05/15 07:30:45;;;;;;;43.97;39.28;;;11.80;99.90;;;;;;5019112;28;20701;-71
2023/05/15 07:33:10;;;;;;;42.45;37.95;;;11.90;99.90;;;;;;5027422;28;20053;-72
2023/05/15 07:35:36;;;;;;;39.80;35.10;;;12.00;99.90;;;;;;5020061;28;20437;-73
2023/05/15 07:38:02;;;;;;;40.63;36.22;;;12.10;99.90;;;;;;5016204;28;20049;-72
2023/05/15 07:40:28;;;;;;;40.58;35.88;;;12.20;99.90;;;;;;5015285;28;20045;-72
2023/05/15 07:42:54;;;;;;;37.50;33.75;;;12.30;99.90;;;;;;5018065;28;20049;-71
2023/05/15 07:45:19;;;;;;;37.58;33.65;;;12.40;99.90;;;;;;5018280;28;20455;-72
2023/05/15 07:47:47;;;;;;;36.33;32.30;;;12.50;99.90;;;;;;5026380;28;20124;-72
2023/05/15 07:50:13;;;;;;;36.15;32.25;;;12.60;99.90;;;;;;5019607;28;20112;-72
2023/05/15 07:52:44;;;;;;;33.25;29.83;;;12.60;99.90;;;;;;5020922;28;20559;-72
2023/05/15 07:55:11;;;;;;;33.65;30.20;;;12.80;99.90;;;;;;5015298;28;20041;-72
2023/05/15 07:57:38;;;;;;;34.10;30.70;;;12.80;99.90;;;;;;5016454;28;20076;-72
2023/05/15 08:00:09;;;;;;;32.70;29.20;;;12.80;99.90;;;;;;5015039;28;20136;-72
2023/05/15 08:02:35;;;;;;;31.77;28.50;;;12.90;99.90;;;;;;5016591;28;20051;-71
2023/05/15 08:05:01;;;;;;;31.77;28.48;;;13.00;99.90;;;;;;5015263;28;20507;-74
2023/05/15 08:07:29;;;;;;;32.42;29.13;;;13.10;99.90;;;;;;5016503;28;20084;-72
2023/05/15 08:09:55;;;;;;;31.48;28.13;;;13.10;99.90;;;;;;5023531;28;20500;-71
2023/05/15 08:12:21;;;;;;;31.35;28.10;;;13.30;99.90;;;;;;5015170;28;20060;-72
2023/05/15 08:14:52;;;;;;;29.63;26.70;;;13.40;99.90;;;;;;5014532;28;20724;-73
2023/05/15 08:17:18;;;;;;;29.30;26.15;;;13.50;99.90;;;;;;5016227;28;20049;-71
2023/05/15 08:19:44;;;;;;;28.88;25.98;;;13.60;99.90;;;;;;5015276;28;20052;-72
2023/05/15 08:22:10;;;;;;;28.63;25.67;;;13.70;99.90;;;;;;5015375;28;20041;-72
2023/05/15 08:24:36;;;;;;;28.60;25.63;;;13.80;99.90;;;;;;5016385;28;20045;-72
2023/05/15 08:27:04;;;;;;;29.40;26.38;;;13.90;99.90;;;;;;5028162;28;20057;-72
2023/05/15 08:29:29;;;;;;;28.90;25.90;;;14.00;99.90;;;;;;5020780;28;20111;-72
2023/05/15 08:31:55;;;;;;;29.10;26.15;;;14.10;99.90;;;;;;5023184;28;20857;-72
2023/05/15 08:34:21;;;;;;;27.75;24.85;;;14.20;99.90;;;;;;5019431;28;20053;-73
2023/05/15 08:36:46;;;;;;;27.42;24.65;;;14.30;99.90;;;;;;5014435;28;20037;-72
2023/05/15 08:39:12;;;;;;;27.17;24.45;;;14.40;99.90;;;;;;5016235;28;20076;-72
2023/05/15 08:41:59;;;;;;;26.42;23.83;;;14.40;99.90;;;;;;5016801;28;20449;-71
2023/05/15 08:44:25;;;;;;;25.98;23.42;;;14.60;99.90;;;;;;5013943;28;20093;-72
2023/05/15 08:46:52;;;;;;;27.35;24.48;;;14.60;99.90;;;;;;5014374;28;20473;-72
2023/05/15 08:49:42;;;;;;;27.08;24.17;;;14.70;99.90;;;;;;5012864;28;20044;-72
2023/05/15 08:52:08;;;;;;;26.65;23.95;;;14.80;99.90;;;;;;5024923;28;20049;-72
2023/05/15 08:54:37;;;;;;;26.52;23.80;;;14.90;99.90;;;;;;5017046;28;20091;-73
2023/05/15 08:57:04;;;;;;;25.80;23.15;;;15.00;99.90;;;;;;5015935;28;20585;-73
2023/05/15 08:59:30;;;;;;;25.13;22.83;;;15.20;99.90;;;;;;5013764;28;20508;-72
2023/05/15 09:01:56;;;;;;;24.23;21.73;;;15.20;99.90;;;;;;5015227;28;20518;-72
2023/05/15 09:04:24;;;;;;;24.73;22.25;;;15.30;99.90;;;;;;5015278;28;20909;-72
2023/05/15 09:06:51;;;;;;;25.10;22.60;;;15.40;99.90;;;;;;5013722;28;20045;-72
2023/05/15 09:09:18;;;;;;;26.63;23.15;;;15.40;99.90;;;;;;5015748;28;20049;-72
2023/05/15 09:11:45;;;;;;;23.87;21.40;;;15.40;99.90;;;;;;5014285;28;20053;-73
2023/05/15 09:14:11;;;;;;;24.15;21.75;;;15.50;99.90;;;;;;5017752;28;20077;-73
2023/05/15 09:16:37;;;;;;;23.63;21.30;;;15.60;99.90;;;;;;5015738;28;20160;-72
2023/05/15 09:19:05;;;;;;;23.92;21.48;;;15.70;99.90;;;;;;5014934;28;20038;-73
2023/05/15 09:21:32;;;;;;;22.23;19.92;;;15.80;99.90;;;;;;5014205;28;20132;-72
2023/05/15 09:24:21;;;;;;;21.83;19.60;;;15.90;99.90;;;;;;5015329;28;20041;-72
2023/05/15 09:27:01;;;;;;;21.35;19.23;;;16.00;99.90;;;;;;5018954;28;20307;-73
2023/05/15 09:29:29;;;;;;;22.85;20.50;;;16.10;99.90;;;;;;5020563;28;20072;-72
2023/05/15 09:31:55;;;;;;;22.60;20.40;;;16.20;99.90;;;;;;5032956;28;20131;-73
2023/05/15 09:34:32;;;;;;;20.88;18.98;;;16.20;99.90;;;;;;5024101;28;20084;-72
2023/05/15 09:37:01;;;;;;;21.05;19.02;;;16.30;99.90;;;;;;5017271;28;20095;-72
2023/05/15 09:39:26;;;;;;;20.48;18.25;;;16.30;99.90;;;;;;5017627;28;20062;-73
2023/05/15 09:41:55;;;;;;;19.92;17.90;;;16.40;99.90;;;;;;5018705;28;20046;-72
2023/05/15 09:44:25;;;;;;;18.10;16.30;;;16.40;99.90;;;;;;5017177;28;20060;-73
2023/05/15 09:46:51;;;;;;;18.10;16.40;;;16.50;99.90;;;;;;5021199;28;20949;-73
2023/05/15 09:49:18;;;;;;;17.90;16.23;;;16.50;99.90;;;;;;5020434;28;20099;-72
2023/05/15 09:51:49;;;;;;;18.33;16.42;;;16.70;99.90;;;;;;5018021;28;20053;-72
2023/05/15 09:54:19;;;;;;;17.00;15.32;;;16.70;99.90;;;;;;5018303;28;20461;-73
2023/05/15 09:56:46;;;;;;;17.52;15.43;;;16.80;99.90;;;;;;5023058;28;20075;-72
2023/05/15 09:59:21;;;;;;;17.85;14.35;;;16.90;99.90;;;;;;5019393;28;20061;-73
2023/05/15 10:01:50;;;;;;;16.65;13.50;;;16.90;99.90;;;;;;5016883;28;20107;-72
2023/05/15 10:04:16;;;;;;;15.15;13.55;;;17.10;99.90;;;;;;5019248;28;20057;-73
2023/05/15 10:06:46;;;;;;;12.30;10.25;;;17.10;99.90;;;;;;5022211;28;20122;-72
2023/05/15 10:09:13;;;;;;;14.32;12.15;;;17.20;99.90;;;;;;5019296;28;20913;-72
2023/05/15 10:11:44;;;;;;;14.88;13.15;;;17.30;99.90;;;;;;5018884;28;20562;-74
2023/05/15 10:14:15;;;;;;;14.65;11.25;;;17.40;99.90;;;;;;5017580;28;20695;-76
2023/05/15 10:16:41;;;;;;;13.75;9.20;;;17.40;99.90;;;;;;5017467;28;20052;-72
2023/05/15 10:19:09;;;;;;;12.27;9.77;;;17.40;99.90;;;;;;5019315;28;20037;-73
2023/05/15 10:21:39;;;;;;;18.25;12.55;;;17.50;99.80;;;;;;5027261;28;20041;-73
2023/05/15 10:24:06;;;;;;;12.73;11.00;;;17.60;99.90;;;;;;5019150;28;20060;-72
2023/05/15 10:26:37;;;;;;;12.70;10.48;;;17.60;98.90;;;;;;5016913;28;20591;-72
2023/05/15 10:29:08;;;;;;;11.70;10.07;;;17.70;98.60;;;;;;5018567;28;20038;-72
2023/05/15 10:31:35;;;;;;;11.77;10.57;;;17.80;98.70;;;;;;5016772;28;20083;-72
2023/05/15 10:34:04;;;;;;;14.88;13.20;;;17.90;99.70;;;;;;5016858;28;20064;-72
2023/05/15 10:36:35;;;;;;;15.93;11.18;;;18.00;99.80;;;;;;5016977;28;20720;-72
2023/05/15 10:39:05;;;;;;;14.25;12.20;;;18.10;99.90;;;;;;5018778;28;20041;-72
2023/05/15 10:41:38;;;;;;;16.00;14.50;;;18.30;99.60;;;;;;5031224;28;20055;-73
2023/05/15 10:44:04;;;;;;;16.20;14.55;;;18.30;99.90;;;;;;5015011;28;20052;-73
2023/05/15 10:46:33;;;;;;;15.52;14.02;;;18.50;99.90;;;;;;5017341;28;20155;-72
2023/05/15 10:49:00;;;;;;;15.23;13.77;;;18.60;99.90;;;;;;5019903;28;20057;-74
2023/05/15 10:51:35;;;;;;;16.60;13.73;;;18.60;99.90;;;;;;5027843;28;20084;-72
2023/05/15 10:54:04;;;;;;;13.98;12.63;;;18.80;99.90;;;;;;5020366;28;20476;-73
2023/05/15 10:56:31;;;;;;;14.13;12.00;;;18.80;99.90;;;;;;5016462;28;20390;-73
2023/05/15 10:59:03;;;;;;;14.23;12.73;;;18.90;99.50;;;;;;5016102;28;20049;-72
2023/05/15 11:01:30;;;;;;;12.63;11.20;;;18.90;99.10;;;;;;5016856;28;20436;-72
2023/05/15 11:04:08;;;;;;;13.27;11.98;;;19.00;98.80;;;;;;5020215;28;20075;-72
2023/05/15 11:06:35;;;;;;;12.48;11.05;;;19.00;97.10;;;;;;5017200;28;20099;-73
2023/05/15 11:09:33;;;;;;;13.27;11.77;;;19.10;97.20;;;;;;5019735;28;20084;-73
2023/05/15 11:12:18;;;;;;;12.35;11.07;;;19.10;96.70;;;;;;5012623;28;20123;-72
2023/05/15 11:15:11;;;;;;;11.25;10.07;;;19.10;95.30;;;;;;5026833;28;20052;-73
2023/05/15 11:17:36;;;;;;;11.45;10.10;;;19.20;95.20;;;;;;5017434;28;20512;-73
2023/05/15 11:20:03;;;;;;;13.93;11.50;;;19.20;94.90;;;;;;5026254;28;20056;-73
2023/05/15 11:22:37;;;;;;;14.02;12.68;;;19.30;94.40;;;;;;5024515;28;20049;-74
2023/05/15 11:25:05;;;;;;;13.93;10.55;;;19.30;94.60;;;;;;5025523;28;20049;-72
2023/05/15 11:27:37;;;;;;;11.68;9.13;;;19.30;93.20;;;;;;5015826;28;20057;-72
2023/05/15 11:30:23;;;;;;;10.32;9.23;;;19.30;92.50;;;;;;5015924;28;20057;-72
2023/05/15 11:32:55;;;;;;;10.57;9.50;;;19.30;91.00;;;;;;5016298;28;20075;-73
2023/05/15 11:35:28;;;;;;;9.25;7.32;;;19.30;92.10;;;;;;5018396;28;20060;-72
2023/05/15 11:37:55;;;;;;;11.35;8.93;;;19.40;90.90;;;;;;5017659;28;20455;-73
2023/05/15 11:40:23;;;;;;;9.57;8.30;;;19.40;89.70;;;;;;5016035;28;22011;-72
2023/05/15 11:43:06;;;;;;;9.93;8.35;;;19.30;87.60;;;;;;5015416;28;20047;-73
2023/05/15 11:45:40;;;;;;;10.90;8.48;;;19.40;83.60;;;;;;5032453;28;20050;-73
2023/05/15 11:48:11;;;;;;;8.77;6.85;;;19.30;84.20;;;;;;5031881;28;20057;-73
2023/05/15 11:50:37;;;;;;;10.05;6.72;;;19.40;83.80;;;;;;5015362;28;20481;-73
2023/05/15 11:53:05;;;;;;;10.25;7.57;;;19.40;82.00;;;;;;5017824;28;20033;-75
2023/05/15 11:55:39;;;;;;;9.82;7.07;;;19.40;81.60;;;;;;5015712;28;20076;-73
2023/05/15 11:58:10;;;;;;;10.05;8.07;;;19.50;80.20;;;;;;5015356;28;20515;-74
2023/05/15 12:00:35;;;;;;;11.45;9.50;;;19.50;81.30;;;;;;5014604;28;20054;-73
2023/05/15 12:03:02;;;;;;;14.10;10.48;;;19.60;82.00;;;;;;5016874;28;20056;-72
2023/05/15 12:05:29;;;;;;;11.57;9.52;;;19.70;81.60;;;;;;5015495;28;20057;-73
2023/05/15 12:07:55;;;;;;;11.02;8.30;;;19.80;81.80;;;;;;5017148;28;20060;-73
2023/05/15 12:10:21;;;;;;;11.35;8.93;;;19.80;81.30;;;;;;5029943;28;20451;-73
2023/05/15 12:12:48;;;;;;;11.13;9.40;;;19.90;82.30;;;;;;5016314;28;20127;-73
2023/05/15 12:15:16;;;;;;;11.63;10.43;;;20.00;82.70;;;;;;5014209;28;20068;-75
2023/05/15 12:17:43;;;;;;;13.45;11.32;;;19.80;81.70;;;;;;5015755;28;20143;-72
2023/05/15 12:20:17;;;;;;;13.38;10.52;;;19.80;82.90;;;;;;5015392;28;20042;-73
2023/05/15 12:22:43;;;;;;;12.48;11.18;;;19.70;82.90;;;;;;5015728;28;20041;-72
2023/05/15 12:25:10;;;;;;;11.85;10.55;;;19.80;84.70;;;;;;5019604;28;20153;-73
2023/05/15 12:27:38;;;;;;;15.43;13.85;;;19.80;84.80;;;;;;5016945;28;20782;-73
2023/05/15 12:30:05;;;;;;;15.32;13.93;;;19.90;85.70;;;;;;5016633;28;20051;-73
2023/05/15 12:32:33;;;;;;;12.38;11.07;;;20.00;86.10;;;;;;5014505;28;20064;-73